sensor_id;sensor_type;location;lat;lon;timestamp;P1;durP1;ratioP1;P2;durP2;ratioP2
20230;SDS011;10274;49.022;9.338;2024-01-11T00:01:34;3.73;;;1.10;;
20230;SDS011;10274;49.022;9.338;2024-01-11T00:04:02;1.90;;;1.80;;
20230;SDS011;10274;49.022;9.338;2024-01-11T00:06:28;1.33;;;1.23;;
20230;SDS011;10274;49.022;9.338;2024-01-11T00:08:55;3.17;;;1.60;;
20230;SDS011;10274;49.022;9.338;2024-01-11T00:11:22;1.57;;;1.47;;
20230;SDS011;10274;49.022;9.338;2024-01-11T00:13:48;1.83;;;1.73;;
20230;SDS011;10274;49.022;9.338;2024-01-11T00:16:15;1.27;;;1.27;;
20230;SDS011;10274;49.022;9.338;2024-01-11T00:18:42;1.33;;;0.70;;
20230;SDS011;10274;49.022;9.338;2024-01-11T00:21:11;0.77;;;0.77;;
20230;SDS011;10274;49.022;9.338;2024-01-11T00:23:38;0.93;;;0.93;;
20230;SDS011;10274;49.022;9.338;2024-01-11T00:26:04;3.37;;;1.93;;
20230;SDS011;10274;49.022;9.338;2024-01-11T00:28:31;2.33;;;1.53;;
20230;SDS011;10274;49.022;9.338;2024-01-11T00:30:58;1.20;;;0.90;;
20230;SDS011;10274;49.022;9.338;2024-01-11T00:33:24;1.80;;;1.40;;
20230;SDS011;10274;49.022;9.338;2024-01-11T00:35:51;0.80;;;0.80;;
20230;SDS011;10274;49.022;9.338;2024-01-11T00:38:19;2.80;;;2.53;;
20230;SDS011;10274;49.022;9.338;2024-01-11T00:40:45;0.73;;;0.73;;
20230;SDS011;10274;49.022;9.338;2024-01-11T00:43:12;5.40;;;1.83;;
20230;SDS011;10274;49.022;9.338;2024-01-11T00:45:39;1.73;;;1.00;;
20230;SDS011;10274;49.022;9.338;2024-01-11T00:48:06;1.17;;;1.07;;
20230;SDS011;10274;49.022;9.338;2024-01-11T00:50:32;2.03;;;1.23;;
20230;SDS011;10274;49.022;9.338;2024-01-11T00:52:59;1.57;;;1.47;;
20230;SDS011;10274;49.022;9.338;2024-01-11T00:55:27;3.13;;;1.30;;
20230;SDS011;10274;49.022;9.338;2024-01-11T00:57:54;1.60;;;1.30;;
20230;SDS011;10274;49.022;9.338;2024-01-11T01:00:20;0.70;;;0.70;;
20230;SDS011;10274;49.022;9.338;2024-01-11T01:02:47;1.13;;;1.13;;
20230;SDS011;10274;49.022;9.338;2024-01-11T01:05:14;1.80;;;1.70;;
20230;SDS011;10274;49.022;9.338;2024-01-11T01:07:41;6.90;;;0.70;;
20230;SDS011;10274;49.022;9.338;2024-01-11T01:10:07;0.73;;;0.70;;
20230;SDS011;10274;49.022;9.338;2024-01-11T01:12:36;5.33;;;1.57;;
20230;SDS011;10274;49.022;9.338;2024-01-11T01:15:02;0.93;;;0.77;;
20230;SDS011;10274;49.022;9.338;2024-01-11T01:17:30;0.70;;;0.70;;
20230;SDS011;10274;49.022;9.338;2024-01-11T01:19:56;2.90;;;2.17;;
20230;SDS011;10274;49.022;9.338;2024-01-11T01:22:23;1.67;;;1.57;;
20230;SDS011;10274;49.022;9.338;2024-01-11T01:24:50;1.53;;;1.43;;
20230;SDS011;10274;49.022;9.338;2024-01-11T01:27:16;2.27;;;2.07;;
20230;SDS011;10274;49.022;9.338;2024-01-11T01:29:44;2.07;;;1.40;;
20230;SDS011;10274;49.022;9.338;2024-01-11T01:32:11;1.60;;;1.50;;
20230;SDS011;10274;49.022;9.338;2024-01-11T01:34:38;1.20;;;1.13;;
20230;SDS011;10274;49.022;9.338;2024-01-11T01:37:05;1.80;;;1.70;;
20230;SDS011;10274;49.022;9.338;2024-01-11T01:39:32;2.00;;;1.90;;
20230;SDS011;10274;49.022;9.338;2024-01-11T01:41:58;1.37;;;0.83;;
20230;SDS011;10274;49.022;9.338;2024-01-11T01:44:25;4.13;;;1.33;;
20230;SDS011;10274;49.022;9.338;2024-01-11T01:46:53;0.80;;;0.80;;
20230;SDS011;10274;49.022;9.338;2024-01-11T01:49:20;2.83;;;1.53;;
20230;SDS011;10274;49.022;9.338;2024-01-11T01:51:47;0.80;;;0.80;;
20230;SDS011;10274;49.022;9.338;2024-01-11T01:54:15;0.70;;;0.70;;
20230;SDS011;10274;49.022;9.338;2024-01-11T01:56:42;3.17;;;1.53;;
20230;SDS011;10274;49.022;9.338;2024-01-11T01:59:09;0.50;;;0.50;;
20230;SDS011;10274;49.022;9.338;2024-01-11T02:01:36;1.77;;;1.67;;
20230;SDS011;10274;49.022;9.338;2024-01-11T02:04:04;4.00;;;0.83;;
20230;SDS011;10274;49.022;9.338;2024-01-11T02:06:31;2.27;;;1.83;;
20230;SDS011;10274;49.022;9.338;2024-01-11T02:09:00;2.70;;;1.87;;
20230;SDS011;10274;49.022;9.338;2024-01-11T02:11:28;1.67;;;1.57;;
20230;SDS011;10274;49.022;9.338;2024-01-11T02:13:56;0.70;;;0.70;;
20230;SDS011;10274;49.022;9.338;2024-01-11T02:16:23;1.73;;;1.63;;
20230;SDS011;10274;49.022;9.338;2024-01-11T02:18:50;0.60;;;0.60;;
20230;SDS011;10274;49.022;9.338;2024-01-11T02:21:18;2.73;;;1.63;;
20230;SDS011;10274;49.022;9.338;2024-01-11T02:23:52;1.87;;;1.50;;
20230;SDS011;10274;49.022;9.338;2024-01-11T02:26:26;2.43;;;1.80;;
20230;SDS011;10274;49.022;9.338;2024-01-11T02:28:53;0.67;;;0.67;;
20230;SDS011;10274;49.022;9.338;2024-01-11T02:31:20;0.50;;;0.50;;
20230;SDS011;10274;49.022;9.338;2024-01-11T02:36:50;0.90;;;0.90;;
20230;SDS011;10274;49.022;9.338;2024-01-11T02:39:19;1.63;;;0.70;;
20230;SDS011;10274;49.022;9.338;2024-01-11T02:41:46;1.17;;;0.77;;
20230;SDS011;10274;49.022;9.338;2024-01-11T02:44:15;0.43;;;0.43;;
20230;SDS011;10274;49.022;9.338;2024-01-11T02:46:42;1.67;;;0.87;;
20230;SDS011;10274;49.022;9.338;2024-01-11T02:49:09;1.90;;;1.27;;
20230;SDS011;10274;49.022;9.338;2024-01-11T02:51:35;1.50;;;1.40;;
20230;SDS011;10274;49.022;9.338;2024-01-11T02:54:02;1.40;;;1.30;;
20230;SDS011;10274;49.022;9.338;2024-01-11T02:56:30;0.80;;;0.70;;
20230;SDS011;10274;49.022;9.338;2024-01-11T02:58:57;0.73;;;0.73;;
20230;SDS011;10274;49.022;9.338;2024-01-11T03:01:23;1.73;;;1.63;;
20230;SDS011;10274;49.022;9.338;2024-01-11T03:03:50;1.93;;;1.80;;
20230;SDS011;10274;49.022;9.338;2024-01-11T03:06:18;2.13;;;1.03;;
20230;SDS011;10274;49.022;9.338;2024-01-11T03:08:46;0.30;;;0.30;;
20230;SDS011;10274;49.022;9.338;2024-01-11T03:11:13;1.63;;;1.53;;
20230;SDS011;10274;49.022;9.338;2024-01-11T03:13:42;0.47;;;0.47;;
20230;SDS011;10274;49.022;9.338;2024-01-11T03:16:09;0.90;;;0.83;;
20230;SDS011;10274;49.022;9.338;2024-01-11T03:18:36;1.17;;;1.07;;
20230;SDS011;10274;49.022;9.338;2024-01-11T03:21:03;3.10;;;1.33;;
20230;SDS011;10274;49.022;9.338;2024-01-11T03:23:30;0.70;;;0.70;;
20230;SDS011;10274;49.022;9.338;2024-01-11T03:25:56;0.63;;;0.63;;
20230;SDS011;10274;49.022;9.338;2024-01-11T03:28:23;0.93;;;0.90;;
20230;SDS011;10274;49.022;9.338;2024-01-11T03:30:51;1.60;;;1.50;;
20230;SDS011;10274;49.022;9.338;2024-01-11T03:33:17;1.80;;;1.57;;
20230;SDS011;10274;49.022;9.338;2024-01-11T03:35:44;2.83;;;1.70;;
20230;SDS011;10274;49.022;9.338;2024-01-11T03:38:11;0.90;;;0.87;;
20230;SDS011;10274;49.022;9.338;2024-01-11T03:40:37;0.70;;;0.70;;
20230;SDS011;10274;49.022;9.338;2024-01-11T03:43:04;0.50;;;0.50;;
20230;SDS011;10274;49.022;9.338;2024-01-11T03:45:30;0.57;;;0.57;;
20230;SDS011;10274;49.022;9.338;2024-01-11T03:47:58;0.87;;;0.87;;
20230;SDS011;10274;49.022;9.338;2024-01-11T03:50:25;0.47;;;0.47;;
20230;SDS011;10274;49.022;9.338;2024-01-11T03:52:52;2.43;;;2.00;;
20230;SDS011;10274;49.022;9.338;2024-01-11T03:55:18;2.00;;;1.90;;
20230;SDS011;10274;49.022;9.338;2024-01-11T03:57:45;0.90;;;0.90;;
20230;SDS011;10274;49.022;9.338;2024-01-11T04:00:12;1.03;;;1.03;;
20230;SDS011;10274;49.022;9.338;2024-01-11T04:02:40;1.10;;;1.00;;
20230;SDS011;10274;49.022;9.338;2024-01-11T04:05:08;1.00;;;0.70;;
20230;SDS011;10274;49.022;9.338;2024-01-11T04:07:35;0.77;;;0.77;;
20230;SDS011;10274;49.022;9.338;2024-01-11T04:10:01;0.50;;;0.50;;
20230;SDS011;10274;49.022;9.338;2024-01-11T04:12:29;1.60;;;1.07;;
20230;SDS011;10274;49.022;9.338;2024-01-11T04:14:55;1.57;;;1.47;;
20230;SDS011;10274;49.022;9.338;2024-01-11T04:17:22;1.03;;;0.73;;
20230;SDS011;10274;49.022;9.338;2024-01-11T04:19:49;3.10;;;0.70;;
20230;SDS011;10274;49.022;9.338;2024-01-11T04:22:17;1.33;;;0.97;;
20230;SDS011;10274;49.022;9.338;2024-01-11T04:24:43;0.50;;;0.50;;
20230;SDS011;10274;49.022;9.338;2024-01-11T04:27:10;0.80;;;0.80;;
20230;SDS011;10274;49.022;9.338;2024-01-11T04:29:37;1.40;;;1.30;;
20230;SDS011;10274;49.022;9.338;2024-01-11T04:32:03;1.70;;;1.40;;
20230;SDS011;10274;49.022;9.338;2024-01-11T04:34:30;2.33;;;1.33;;
20230;SDS011;10274;49.022;9.338;2024-01-11T04:36:57;0.93;;;0.93;;
20230;SDS011;10274;49.022;9.338;2024-01-11T04:39:26;2.37;;;1.73;;
20230;SDS011;10274;49.022;9.338;2024-01-11T04:41:53;0.93;;;0.77;;
20230;SDS011;10274;49.022;9.338;2024-01-11T04:44:19;0.83;;;0.83;;
20230;SDS011;10274;49.022;9.338;2024-01-11T04:46:46;1.57;;;1.47;;
20230;SDS011;10274;49.022;9.338;2024-01-11T04:49:12;1.10;;;1.10;;
20230;SDS011;10274;49.022;9.338;2024-01-11T04:51:39;2.93;;;1.60;;
20230;SDS011;10274;49.022;9.338;2024-01-11T04:54:06;0.70;;;0.70;;
20230;SDS011;10274;49.022;9.338;2024-01-11T04:56:34;3.70;;;1.97;;
20230;SDS011;10274;49.022;9.338;2024-01-11T04:59:00;2.20;;;1.37;;
20230;SDS011;10274;49.022;9.338;2024-01-11T05:01:27;6.50;;;2.10;;
20230;SDS011;10274;49.022;9.338;2024-01-11T05:03:54;4.73;;;2.73;;
20230;SDS011;10274;49.022;9.338;2024-01-11T05:06:21;1.43;;;1.20;;
20230;SDS011;10274;49.022;9.338;2024-01-11T05:08:50;1.40;;;1.30;;
20230;SDS011;10274;49.022;9.338;2024-01-11T05:11:17;1.60;;;1.50;;
20230;SDS011;10274;49.022;9.338;2024-01-11T05:13:45;2.03;;;1.90;;
20230;SDS011;10274;49.022;9.338;2024-01-11T05:16:19;1.53;;;1.27;;
20230;SDS011;10274;49.022;9.338;2024-01-11T05:18:47;1.30;;;0.77;;
20230;SDS011;10274;49.022;9.338;2024-01-11T05:21:14;0.33;;;0.33;;
20230;SDS011;10274;49.022;9.338;2024-01-11T05:23:41;0.63;;;0.63;;
20230;SDS011;10274;49.022;9.338;2024-01-11T05:26:07;1.33;;;1.23;;
20230;SDS011;10274;49.022;9.338;2024-01-11T05:28:34;1.50;;;1.03;;
20230;SDS011;10274;49.022;9.338;2024-01-11T05:31:02;4.17;;;1.20;;
20230;SDS011;10274;49.022;9.338;2024-01-11T05:33:30;1.27;;;1.17;;
20230;SDS011;10274;49.022;9.338;2024-01-11T05:35:57;0.77;;;0.77;;
20230;SDS011;10274;49.022;9.338;2024-01-11T05:38:23;0.93;;;0.93;;
20230;SDS011;10274;49.022;9.338;2024-01-11T05:40:50;0.70;;;0.50;;
20230;SDS011;10274;49.022;9.338;2024-01-11T05:43:17;1.13;;;1.13;;
20230;SDS011;10274;49.022;9.338;2024-01-11T05:45:43;0.97;;;0.97;;
20230;SDS011;10274;49.022;9.338;2024-01-11T05:48:11;1.60;;;1.30;;
20230;SDS011;10274;49.022;9.338;2024-01-11T05:50:38;0.77;;;0.77;;
20230;SDS011;10274;49.022;9.338;2024-01-11T05:53:05;3.00;;;1.30;;
20230;SDS011;10274;49.022;9.338;2024-01-11T05:55:31;1.87;;;1.70;;
20230;SDS011;10274;49.022;9.338;2024-01-11T05:57:58;4.10;;;1.73;;
20230;SDS011;10274;49.022;9.338;2024-01-11T06:00:25;0.83;;;0.83;;
20230;SDS011;10274;49.022;9.338;2024-01-11T06:02:51;0.80;;;0.80;;
20230;SDS011;10274;49.022;9.338;2024-01-11T06:05:19;1.67;;;1.57;;
20230;SDS011;10274;49.022;9.338;2024-01-11T06:07:46;1.33;;;1.20;;
20230;SDS011;10274;49.022;9.338;2024-01-11T06:10:13;0.73;;;0.73;;
20230;SDS011;10274;49.022;9.338;2024-01-11T06:12:40;0.97;;;0.93;;
20230;SDS011;10274;49.022;9.338;2024-01-11T06:15:07;2.20;;;2.00;;
20230;SDS011;10274;49.022;9.338;2024-01-11T06:17:34;0.43;;;0.43;;
20230;SDS011;10274;49.022;9.338;2024-01-11T06:20:01;1.50;;;1.40;;
20230;SDS011;10274;49.022;9.338;2024-01-11T06:22:30;1.33;;;1.23;;
20230;SDS011;10274;49.022;9.338;2024-01-11T06:24:56;0.50;;;0.50;;
20230;SDS011;10274;49.022;9.338;2024-01-11T06:27:24;2.33;;;1.60;;
20230;SDS011;10274;49.022;9.338;2024-01-11T06:29:51;1.27;;;1.17;;
20230;SDS011;10274;49.022;9.338;2024-01-11T06:32:18;1.33;;;0.83;;
20230;SDS011;10274;49.022;9.338;2024-01-11T06:34:44;0.50;;;0.50;;
20230;SDS011;10274;49.022;9.338;2024-01-11T06:37:12;0.60;;;0.60;;
20230;SDS011;10274;49.022;9.338;2024-01-11T06:39:40;1.80;;;0.83;;
20230;SDS011;10274;49.022;9.338;2024-01-11T06:42:07;1.53;;;1.43;;
20230;SDS011;10274;49.022;9.338;2024-01-11T06:44:33;0.77;;;0.77;;
20230;SDS011;10274;49.022;9.338;2024-01-11T06:47:00;0.73;;;0.73;;
20230;SDS011;10274;49.022;9.338;2024-01-11T06:49:29;1.70;;;1.60;;
20230;SDS011;10274;49.022;9.338;2024-01-11T06:51:55;1.50;;;1.40;;
20230;SDS011;10274;49.022;9.338;2024-01-11T06:54:22;0.83;;;0.50;;
20230;SDS011;10274;49.022;9.338;2024-01-11T06:56:50;1.60;;;1.50;;
20230;SDS011;10274;49.022;9.338;2024-01-11T06:59:16;0.47;;;0.47;;
20230;SDS011;10274;49.022;9.338;2024-01-11T07:01:43;1.13;;;1.07;;
20230;SDS011;10274;49.022;9.338;2024-01-11T07:04:10;0.73;;;0.60;;
20230;SDS011;10274;49.022;9.338;2024-01-11T07:06:37;0.83;;;0.83;;
20230;SDS011;10274;49.022;9.338;2024-01-11T07:09:04;1.70;;;1.20;;
20230;SDS011;10274;49.022;9.338;2024-01-11T07:11:30;0.90;;;0.90;;
20230;SDS011;10274;49.022;9.338;2024-01-11T07:13:59;0.70;;;0.70;;
20230;SDS011;10274;49.022;9.338;2024-01-11T07:16:26;1.90;;;1.80;;
20230;SDS011;10274;49.022;9.338;2024-01-11T07:18:53;7.00;;;2.27;;
20230;SDS011;10274;49.022;9.338;2024-01-11T07:21:20;1.93;;;1.13;;
20230;SDS011;10274;49.022;9.338;2024-01-11T07:23:54;2.00;;;1.23;;
20230;SDS011;10274;49.022;9.338;2024-01-11T07:26:21;2.77;;;2.00;;
20230;SDS011;10274;49.022;9.338;2024-01-11T07:28:48;1.13;;;1.13;;
20230;SDS011;10274;49.022;9.338;2024-01-11T07:31:16;0.57;;;0.57;;
20230;SDS011;10274;49.022;9.338;2024-01-11T07:33:43;1.37;;;1.27;;
20230;SDS011;10274;49.022;9.338;2024-01-11T07:36:10;1.90;;;1.47;;
20230;SDS011;10274;49.022;9.338;2024-01-11T07:38:37;0.87;;;0.73;;
20230;SDS011;10274;49.022;9.338;2024-01-11T07:41:04;1.13;;;1.13;;
20230;SDS011;10274;49.022;9.338;2024-01-11T07:43:30;0.87;;;0.87;;
20230;SDS011;10274;49.022;9.338;2024-01-11T07:46:00;0.83;;;0.83;;
20230;SDS011;10274;49.022;9.338;2024-01-11T07:48:28;1.37;;;0.83;;
20230;SDS011;10274;49.022;9.338;2024-01-11T07:50:55;0.93;;;0.93;;
20230;SDS011;10274;49.022;9.338;2024-01-11T07:53:21;0.83;;;0.83;;
20230;SDS011;10274;49.022;9.338;2024-01-11T07:55:49;1.63;;;1.53;;
20230;SDS011;10274;49.022;9.338;2024-01-11T07:58:18;1.80;;;1.60;;
20230;SDS011;10274;49.022;9.338;2024-01-11T08:00:46;2.47;;;1.07;;
20230;SDS011;10274;49.022;9.338;2024-01-11T08:03:13;0.60;;;0.60;;
20230;SDS011;10274;49.022;9.338;2024-01-11T08:05:41;2.33;;;0.80;;
20230;SDS011;10274;49.022;9.338;2024-01-11T08:08:09;1.03;;;1.03;;
20230;SDS011;10274;49.022;9.338;2024-01-11T08:10:36;2.10;;;1.60;;
20230;SDS011;10274;49.022;9.338;2024-01-11T08:13:02;2.00;;;1.83;;
20230;SDS011;10274;49.022;9.338;2024-01-11T08:15:29;3.93;;;2.53;;
20230;SDS011;10274;49.022;9.338;2024-01-11T08:17:56;5.90;;;3.37;;
20230;SDS011;10274;49.022;9.338;2024-01-11T08:20:23;5.23;;;4.03;;
20230;SDS011;10274;49.022;9.338;2024-01-11T08:22:51;4.80;;;3.53;;
20230;SDS011;10274;49.022;9.338;2024-01-11T08:25:18;4.33;;;3.27;;
20230;SDS011;10274;49.022;9.338;2024-01-11T08:27:44;4.77;;;3.13;;
20230;SDS011;10274;49.022;9.338;2024-01-11T08:30:11;5.27;;;3.60;;
20230;SDS011;10274;49.022;9.338;2024-01-11T08:32:38;4.53;;;2.77;;
20230;SDS011;10274;49.022;9.338;2024-01-11T08:35:07;4.97;;;2.40;;
20230;SDS011;10274;49.022;9.338;2024-01-11T08:37:35;3.17;;;2.80;;
20230;SDS011;10274;49.022;9.338;2024-01-11T08:40:03;7.47;;;4.23;;
20230;SDS011;10274;49.022;9.338;2024-01-11T08:42:31;4.33;;;3.50;;
20230;SDS011;10274;49.022;9.338;2024-01-11T08:44:58;4.40;;;3.10;;
20230;SDS011;10274;49.022;9.338;2024-01-11T08:47:28;3.80;;;3.40;;
20230;SDS011;10274;49.022;9.338;2024-01-11T08:49:56;4.37;;;3.57;;
20230;SDS011;10274;49.022;9.338;2024-01-11T08:52:22;4.27;;;3.03;;
20230;SDS011;10274;49.022;9.338;2024-01-11T08:54:49;3.93;;;2.90;;
20230;SDS011;10274;49.022;9.338;2024-01-11T08:57:17;6.30;;;4.17;;
20230;SDS011;10274;49.022;9.338;2024-01-11T08:59:43;6.30;;;3.83;;
20230;SDS011;10274;49.022;9.338;2024-01-11T09:02:10;4.67;;;3.27;;
20230;SDS011;10274;49.022;9.338;2024-01-11T09:04:37;5.20;;;3.70;;
20230;SDS011;10274;49.022;9.338;2024-01-11T09:07:03;5.70;;;3.17;;
20230;SDS011;10274;49.022;9.338;2024-01-11T09:09:30;3.90;;;2.77;;
20230;SDS011;10274;49.022;9.338;2024-01-11T09:11:57;4.33;;;3.13;;
20230;SDS011;10274;49.022;9.338;2024-01-11T09:14:25;4.17;;;3.40;;
20230;SDS011;10274;49.022;9.338;2024-01-11T09:16:51;6.33;;;4.83;;
20230;SDS011;10274;49.022;9.338;2024-01-11T09:19:18;7.30;;;3.93;;
20230;SDS011;10274;49.022;9.338;2024-01-11T09:21:45;5.07;;;3.80;;
20230;SDS011;10274;49.022;9.338;2024-01-11T09:24:11;5.90;;;3.83;;
20230;SDS011;10274;49.022;9.338;2024-01-11T09:26:38;3.27;;;2.67;;
20230;SDS011;10274;49.022;9.338;2024-01-11T09:29:05;6.97;;;4.83;;
20230;SDS011;10274;49.022;9.338;2024-01-11T09:31:33;5.07;;;3.97;;
20230;SDS011;10274;49.022;9.338;2024-01-11T09:33:59;6.40;;;3.83;;
20230;SDS011;10274;49.022;9.338;2024-01-11T09:36:26;4.83;;;3.60;;
20230;SDS011;10274;49.022;9.338;2024-01-11T09:38:53;7.50;;;4.67;;
20230;SDS011;10274;49.022;9.338;2024-01-11T09:41:20;6.57;;;4.23;;
20230;SDS011;10274;49.022;9.338;2024-01-11T09:43:48;6.30;;;4.17;;
20230;SDS011;10274;49.022;9.338;2024-01-11T09:46:19;6.60;;;3.73;;
20230;SDS011;10274;49.022;9.338;2024-01-11T09:48:48;6.30;;;4.13;;
20230;SDS011;10274;49.022;9.338;2024-01-11T09:51:16;10.50;;;4.67;;
20230;SDS011;10274;49.022;9.338;2024-01-11T09:53:42;6.40;;;4.07;;
20230;SDS011;10274;49.022;9.338;2024-01-11T09:56:10;4.73;;;3.80;;
20230;SDS011;10274;49.022;9.338;2024-01-11T09:58:37;5.30;;;3.53;;
20230;SDS011;10274;49.022;9.338;2024-01-11T10:01:08;4.60;;;3.17;;
20230;SDS011;10274;49.022;9.338;2024-01-11T10:03:38;6.20;;;3.63;;
20230;SDS011;10274;49.022;9.338;2024-01-11T10:06:07;6.27;;;4.27;;
20230;SDS011;10274;49.022;9.338;2024-01-11T10:08:35;9.00;;;4.67;;
20230;SDS011;10274;49.022;9.338;2024-01-11T10:11:02;4.67;;;3.20;;
20230;SDS011;10274;49.022;9.338;2024-01-11T10:13:30;6.63;;;4.53;;
20230;SDS011;10274;49.022;9.338;2024-01-11T10:16:04;5.73;;;3.23;;
20230;SDS011;10274;49.022;9.338;2024-01-11T10:18:32;6.27;;;4.00;;
20230;SDS011;10274;49.022;9.338;2024-01-11T10:20:59;5.40;;;3.93;;
20230;SDS011;10274;49.022;9.338;2024-01-11T10:23:27;7.53;;;4.60;;
20230;SDS011;10274;49.022;9.338;2024-01-11T10:25:54;8.70;;;5.27;;
20230;SDS011;10274;49.022;9.338;2024-01-11T10:28:21;6.87;;;4.60;;
20230;SDS011;10274;49.022;9.338;2024-01-11T10:30:50;7.30;;;5.13;;
20230;SDS011;10274;49.022;9.338;2024-01-11T10:33:18;6.70;;;5.33;;
20230;SDS011;10274;49.022;9.338;2024-01-11T10:35:46;8.73;;;5.83;;
20230;SDS011;10274;49.022;9.338;2024-01-11T10:38:13;8.03;;;5.50;;
20230;SDS011;10274;49.022;9.338;2024-01-11T10:40:42;6.30;;;5.17;;
20230;SDS011;10274;49.022;9.338;2024-01-11T10:43:09;9.53;;;5.43;;
20230;SDS011;10274;49.022;9.338;2024-01-11T10:45:36;8.40;;;4.60;;
20230;SDS011;10274;49.022;9.338;2024-01-11T10:48:06;5.67;;;4.40;;
20230;SDS011;10274;49.022;9.338;2024-01-11T10:50:34;6.97;;;4.83;;
20230;SDS011;10274;49.022;9.338;2024-01-11T10:53:03;7.27;;;4.33;;
20230;SDS011;10274;49.022;9.338;2024-01-11T10:55:34;6.60;;;4.13;;
20230;SDS011;10274;49.022;9.338;2024-01-11T10:58:03;7.20;;;3.90;;
20230;SDS011;10274;49.022;9.338;2024-01-11T11:00:31;7.67;;;4.27;;
20230;SDS011;10274;49.022;9.338;2024-01-11T11:02:59;6.27;;;3.60;;
20230;SDS011;10274;49.022;9.338;2024-01-11T11:05:26;5.97;;;3.57;;
20230;SDS011;10274;49.022;9.338;2024-01-11T11:07:54;5.73;;;4.40;;
20230;SDS011;10274;49.022;9.338;2024-01-11T11:10:22;5.57;;;4.00;;
20230;SDS011;10274;49.022;9.338;2024-01-11T11:12:51;5.40;;;3.00;;
20230;SDS011;10274;49.022;9.338;2024-01-11T11:15:21;8.77;;;4.63;;
20230;SDS011;10274;49.022;9.338;2024-01-11T11:17:49;6.13;;;4.17;;
20230;SDS011;10274;49.022;9.338;2024-01-11T11:20:18;6.57;;;4.33;;
20230;SDS011;10274;49.022;9.338;2024-01-11T11:22:47;5.33;;;4.40;;
20230;SDS011;10274;49.022;9.338;2024-01-11T11:25:28;4.80;;;4.10;;
20230;SDS011;10274;49.022;9.338;2024-01-11T11:27:56;8.27;;;4.57;;
20230;SDS011;10274;49.022;9.338;2024-01-11T11:30:25;6.50;;;4.57;;
20230;SDS011;10274;49.022;9.338;2024-01-11T11:32:52;5.53;;;4.23;;
20230;SDS011;10274;49.022;9.338;2024-01-11T11:35:22;6.80;;;4.60;;
20230;SDS011;10274;49.022;9.338;2024-01-11T11:37:53;8.00;;;4.73;;
20230;SDS011;10274;49.022;9.338;2024-01-11T11:40:21;5.90;;;3.73;;
20230;SDS011;10274;49.022;9.338;2024-01-11T11:42:48;8.70;;;5.30;;
20230;SDS011;10274;49.022;9.338;2024-01-11T11:45:24;4.60;;;4.20;;
20230;SDS011;10274;49.022;9.338;2024-01-11T11:47:51;7.73;;;5.60;;
20230;SDS011;10274;49.022;9.338;2024-01-11T11:50:21;5.90;;;4.50;;
20230;SDS011;10274;49.022;9.338;2024-01-11T11:52:53;7.30;;;5.27;;
20230;SDS011;10274;49.022;9.338;2024-01-11T11:55:20;6.47;;;4.47;;
20230;SDS011;10274;49.022;9.338;2024-01-11T11:57:49;5.50;;;4.00;;
20230;SDS011;10274;49.022;9.338;2024-01-11T12:00:16;6.17;;;4.53;;
20230;SDS011;10274;49.022;9.338;2024-01-11T12:02:44;8.30;;;4.80;;
20230;SDS011;10274;49.022;9.338;2024-01-11T12:05:13;7.53;;;4.47;;
20230;SDS011;10274;49.022;9.338;2024-01-11T12:07:39;8.13;;;5.00;;
20230;SDS011;10274;49.022;9.338;2024-01-11T12:10:06;6.57;;;5.07;;
20230;SDS011;10274;49.022;9.338;2024-01-11T12:12:34;8.43;;;5.73;;
20230;SDS011;10274;49.022;9.338;2024-01-11T12:15:01;4.73;;;3.43;;
20230;SDS011;10274;49.022;9.338;2024-01-11T12:17:29;7.83;;;5.03;;
20230;SDS011;10274;49.022;9.338;2024-01-11T12:19:57;9.13;;;6.00;;
20230;SDS011;10274;49.022;9.338;2024-01-11T12:22:23;7.50;;;4.27;;
20230;SDS011;10274;49.022;9.338;2024-01-11T12:24:50;7.20;;;5.43;;
20230;SDS011;10274;49.022;9.338;2024-01-11T12:27:17;8.60;;;5.87;;
20230;SDS011;10274;49.022;9.338;2024-01-11T12:29:45;7.37;;;5.20;;
20230;SDS011;10274;49.022;9.338;2024-01-11T12:32:12;7.43;;;4.40;;
20230;SDS011;10274;49.022;9.338;2024-01-11T12:34:41;8.10;;;5.37;;
20230;SDS011;10274;49.022;9.338;2024-01-11T12:37:11;4.77;;;3.07;;
20230;SDS011;10274;49.022;9.338;2024-01-11T12:39:38;6.97;;;5.10;;
20230;SDS011;10274;49.022;9.338;2024-01-11T12:42:05;8.27;;;5.47;;
20230;SDS011;10274;49.022;9.338;2024-01-11T12:44:32;4.13;;;3.33;;
20230;SDS011;10274;49.022;9.338;2024-01-11T12:47:00;6.63;;;5.50;;
20230;SDS011;10274;49.022;9.338;2024-01-11T12:49:27;7.07;;;3.97;;
20230;SDS011;10274;49.022;9.338;2024-01-11T12:51:54;7.23;;;4.93;;
20230;SDS011;10274;49.022;9.338;2024-01-11T12:54:22;8.37;;;5.90;;
20230;SDS011;10274;49.022;9.338;2024-01-11T12:56:48;8.00;;;5.47;;
20230;SDS011;10274;49.022;9.338;2024-01-11T12:59:15;5.17;;;3.83;;
20230;SDS011;10274;49.022;9.338;2024-01-11T13:01:42;7.00;;;5.07;;
20230;SDS011;10274;49.022;9.338;2024-01-11T13:04:09;7.63;;;5.23;;
20230;SDS011;10274;49.022;9.338;2024-01-11T13:06:36;6.23;;;4.77;;
20230;SDS011;10274;49.022;9.338;2024-01-11T13:09:03;6.13;;;4.47;;
20230;SDS011;10274;49.022;9.338;2024-01-11T13:11:30;7.30;;;4.43;;
20230;SDS011;10274;49.022;9.338;2024-01-11T13:16:28;6.53;;;5.10;;
20230;SDS011;10274;49.022;9.338;2024-01-11T13:18:55;6.77;;;4.23;;
20230;SDS011;10274;49.022;9.338;2024-01-11T13:21:22;11.50;;;4.60;;
20230;SDS011;10274;49.022;9.338;2024-01-11T13:23:48;6.73;;;4.07;;
20230;SDS011;10274;49.022;9.338;2024-01-11T13:26:15;6.50;;;3.50;;
20230;SDS011;10274;49.022;9.338;2024-01-11T13:28:43;6.57;;;3.90;;
20230;SDS011;10274;49.022;9.338;2024-01-11T13:31:10;5.87;;;4.43;;
20230;SDS011;10274;49.022;9.338;2024-01-11T13:33:37;8.23;;;4.17;;
20230;SDS011;10274;49.022;9.338;2024-01-11T13:36:04;6.17;;;3.73;;
20230;SDS011;10274;49.022;9.338;2024-01-11T13:38:32;4.17;;;3.23;;
20230;SDS011;10274;49.022;9.338;2024-01-11T13:40:59;6.90;;;3.50;;
20230;SDS011;10274;49.022;9.338;2024-01-11T13:43:26;8.97;;;3.97;;
20230;SDS011;10274;49.022;9.338;2024-01-11T13:45:54;3.90;;;2.43;;
20230;SDS011;10274;49.022;9.338;2024-01-11T13:48:21;7.60;;;4.53;;
20230;SDS011;10274;49.022;9.338;2024-01-11T13:50:48;6.47;;;3.87;;
20230;SDS011;10274;49.022;9.338;2024-01-11T13:53:14;7.93;;;4.23;;
20230;SDS011;10274;49.022;9.338;2024-01-11T13:55:41;5.20;;;3.87;;
20230;SDS011;10274;49.022;9.338;2024-01-11T13:58:08;6.03;;;4.03;;
20230;SDS011;10274;49.022;9.338;2024-01-11T14:00:37;5.83;;;3.63;;
20230;SDS011;10274;49.022;9.338;2024-01-11T14:03:05;5.43;;;3.23;;
20230;SDS011;10274;49.022;9.338;2024-01-11T14:05:33;5.00;;;3.23;;
20230;SDS011;10274;49.022;9.338;2024-01-11T14:08:00;3.93;;;3.30;;
20230;SDS011;10274;49.022;9.338;2024-01-11T14:10:30;6.03;;;4.17;;
20230;SDS011;10274;49.022;9.338;2024-01-11T14:12:57;5.13;;;2.97;;
20230;SDS011;10274;49.022;9.338;2024-01-11T14:15:24;6.63;;;3.10;;
20230;SDS011;10274;49.022;9.338;2024-01-11T14:17:51;7.13;;;3.07;;
20230;SDS011;10274;49.022;9.338;2024-01-11T14:20:19;3.77;;;3.37;;
20230;SDS011;10274;49.022;9.338;2024-01-11T14:22:46;4.90;;;3.57;;
20230;SDS011;10274;49.022;9.338;2024-01-11T14:25:14;3.97;;;2.57;;
20230;SDS011;10274;49.022;9.338;2024-01-11T14:27:41;5.57;;;2.83;;
20230;SDS011;10274;49.022;9.338;2024-01-11T14:30:09;4.07;;;2.93;;
20230;SDS011;10274;49.022;9.338;2024-01-11T14:32:36;6.07;;;3.30;;
20230;SDS011;10274;49.022;9.338;2024-01-11T14:35:04;6.40;;;3.20;;
20230;SDS011;10274;49.022;9.338;2024-01-11T14:37:34;4.17;;;3.03;;
20230;SDS011;10274;49.022;9.338;2024-01-11T14:40:02;4.03;;;3.17;;
20230;SDS011;10274;49.022;9.338;2024-01-11T14:42:29;5.60;;;3.13;;
20230;SDS011;10274;49.022;9.338;2024-01-11T14:44:56;5.87;;;2.87;;
20230;SDS011;10274;49.022;9.338;2024-01-11T14:47:23;5.13;;;2.30;;
20230;SDS011;10274;49.022;9.338;2024-01-11T14:49:50;3.43;;;2.20;;
20230;SDS011;10274;49.022;9.338;2024-01-11T14:52:17;5.43;;;3.13;;
20230;SDS011;10274;49.022;9.338;2024-01-11T14:54:46;4.27;;;2.87;;